Time;durP1;ratioP1;P1;durP2;ratioP2;P2;SDS_P1;SDS_P2;PMS_P1;PMS_P2;Temp;Humidity;BMP_temperature;BMP_pressure;BME280_temperature;BME280_humidity;BME280_pressure;Samples;Min_cycle;Max_cycle;Signal;HPM_P1;HPM_P2
2021/07/11 00:01:04;;;;;;;18.27;16.47;;;18.00;99.90;;;;;;5056275;28;20480;-78
2021/07/11 00:03:32;;;;;;;18.70;16.90;;;18.00;99.90;;;;;;5056501;28;20878;-78
2021/07/11 00:05:58;;;;;;;17.80;15.90;;;18.00;99.90;;;;;;5055980;28;20450;-78
2021/07/11 00:08:25;;;;;;;23.07;17.37;;;17.90;99.90;;;;;;5055321;28;20997;-78
2021/07/11 00:10:52;;;;;;;18.63;16.30;;;17.90;99.90;;;;;;5056154;28;20565;-79
2021/07/11 00:13:18;;;;;;;20.23;16.37;;;18.20;99.90;;;;;;5055945;28;20481;-78
2021/07/11 00:15:45;;;;;;;17.77;15.97;;;17.90;99.90;;;;;;5055460;28;20485;-79
2021/07/11 00:18:13;;;;;;;21.43;16.20;;;17.90;99.90;;;;;;5055317;28;20457;-78
2021/07/11 00:20:41;;;;;;;16.50;14.67;;;17.80;99.90;;;;;;5055721;28;20444;-78
2021/07/11 00:23:07;;;;;;;17.40;15.70;;;17.80;99.90;;;;;;5055529;28;20451;-78
2021/07/11 00:25:34;;;;;;;18.13;16.33;;;17.80;99.90;;;;;;5055258;28;20450;-78
2021/07/11 00:28:01;;;;;;;17.10;15.50;;;17.80;99.90;;;;;;5055440;28;20549;-78
2021/07/11 00:30:27;;;;;;;17.93;16.10;;;17.70;99.90;;;;;;5055475;28;20535;-77
2021/07/11 00:32:55;;;;;;;16.90;15.17;;;17.80;99.90;;;;;;5055092;28;20520;-77
2021/07/11 00:35:21;;;;;;;16.00;14.40;;;17.70;99.90;;;;;;5056198;28;20450;-79
2021/07/11 00:37:50;;;;;;;16.70;15.00;;;17.70;99.90;;;;;;5055835;28;20494;-78
2021/07/11 00:40:18;;;;;;;18.07;16.17;;;17.70;99.90;;;;;;5055758;28;20503;-79
2021/07/11 00:42:44;;;;;;;17.90;15.63;;;17.60;99.90;;;;;;5055677;28;20452;-78
2021/07/11 00:45:13;;;;;;;17.10;15.37;;;17.80;99.90;;;;;;5054885;28;20808;-78
2021/07/11 00:47:41;;;;;;;17.43;15.73;;;17.60;99.90;;;;;;5054528;28;20490;-78
2021/07/11 00:50:10;;;;;;;18.10;15.60;;;17.60;99.90;;;;;;5054911;28;20486;-79
2021/07/11 00:52:38;;;;;;;16.97;15.37;;;17.60;99.90;;;;;;5054580;28;20446;-77
2021/07/11 00:55:08;;;;;;;21.10;16.13;;;17.50;99.90;;;;;;5054959;28;20536;-78
2021/07/11 00:57:34;;;;;;;16.70;15.20;;;17.50;99.90;;;;;;5054728;28;20905;-78
2021/07/11 01:00:05;;;;;;;17.50;15.70;;;17.50;99.90;;;;;;5054542;28;20556;-77
2021/07/11 01:02:36;;;;;;;16.60;14.90;;;17.40;99.90;;;;;;5054621;28;20428;-78
2021/07/11 01:05:06;;;;;;;21.20;15.13;;;17.40;99.90;;;;;;5055406;28;20834;-78
2021/07/11 01:07:37;;;;;;;17.43;15.70;;;17.30;99.90;;;;;;5054649;28;20574;-78
2021/07/11 01:10:09;;;;;;;16.30;14.70;;;17.30;99.90;;;;;;5054345;28;20555;-78
2021/07/11 01:12:42;;;;;;;15.53;14.13;;;17.30;99.90;;;;;;5054312;28;20433;-78
2021/07/11 01:15:10;;;;;;;17.13;15.40;;;17.30;99.90;;;;;;5054059;28;20954;-78
2021/07/11 01:17:38;;;;;;;17.10;15.23;;;17.30;99.90;;;;;;5053415;28;20884;-78
2021/07/11 01:20:21;;;;;;;16.40;14.90;;;17.20;99.90;;;;;;5054160;28;20997;-78
2021/07/11 01:22:51;;;;;;;18.30;15.53;;;17.10;99.90;;;;;;5054125;28;20465;-79
2021/07/11 01:25:32;;;;;;;17.03;15.37;;;17.10;99.90;;;;;;5054039;28;20469;-78
2021/07/11 01:28:00;;;;;;;17.30;15.50;;;17.10;99.90;;;;;;5054175;28;20876;-79
2021/07/11 01:30:26;;;;;;;16.30;14.70;;;17.10;99.90;;;;;;5054182;28;20481;-77
2021/07/11 01:32:53;;;;;;;16.40;14.77;;;17.00;99.90;;;;;;5053828;28;20499;-78
2021/07/11 01:35:20;;;;;;;16.43;14.93;;;16.90;99.90;;;;;;5053974;28;20449;-78
2021/07/11 01:37:47;;;;;;;16.90;15.30;;;16.90;99.90;;;;;;5053671;28;20497;-77
2021/07/11 01:40:15;;;;;;;20.57;14.37;;;16.90;99.90;;;;;;5053612;28;20576;-78
2021/07/11 01:42:43;;;;;;;17.17;15.40;;;17.00;99.90;;;;;;5053679;28;20511;-79
2021/07/11 01:45:11;;;;;;;16.33;14.67;;;17.00;99.90;;;;;;5053537;28;20507;-78
2021/07/11 01:47:38;;;;;;;18.10;16.20;;;16.90;99.90;;;;;;5053554;28;20500;-78
2021/07/11 01:50:06;;;;;;;17.50;15.20;;;16.90;99.90;;;;;;5053638;28;20481;-77
2021/07/11 01:52:34;;;;;;;16.70;14.97;;;16.90;99.90;;;;;;5055074;28;20450;-78
2021/07/11 01:55:02;;;;;;;16.90;15.20;;;16.80;99.90;;;;;;5054012;28;20499;-77
2021/07/11 01:57:29;;;;;;;15.00;13.60;;;16.90;99.90;;;;;;5053869;28;20480;-78
2021/07/11 01:59:57;;;;;;;20.30;15.17;;;16.90;99.90;;;;;;5053701;28;20453;-78
2021/07/11 02:02:23;;;;;;;15.73;14.17;;;16.90;99.90;;;;;;5053510;28;20497;-77
2021/07/11 02:04:50;;;;;;;16.67;15.07;;;16.90;99.90;;;;;;5053550;28;20446;-77
2021/07/11 02:07:16;;;;;;;16.30;14.70;;;16.90;99.90;;;;;;5053704;28;20905;-76
2021/07/11 02:09:43;;;;;;;16.37;14.73;;;16.90;99.90;;;;;;5053873;28;20450;-76
2021/07/11 02:12:11;;;;;;;16.73;15.03;;;16.90;99.90;;;;;;5053672;28;20517;-76
2021/07/11 02:14:42;;;;;;;15.73;14.13;;;16.90;99.90;;;;;;5053752;28;20488;-77
2021/07/11 02:17:14;;;;;;;15.87;14.37;;;16.90;99.90;;;;;;5053716;28;20497;-76
2021/07/11 02:19:42;;;;;;;15.73;14.10;;;17.00;99.90;;;;;;5053557;28;20464;-76
2021/07/11 02:22:11;;;;;;;16.63;14.20;;;16.90;99.90;;;;;;5053781;28;20524;-76
2021/07/11 02:24:39;;;;;;;15.13;13.63;;;16.80;99.90;;;;;;5053846;28;20986;-77
2021/07/11 02:27:07;;;;;;;15.10;13.70;;;16.80;99.90;;;;;;5056086;28;20516;-77
2021/07/11 02:29:38;;;;;;;15.90;14.27;;;16.80;99.90;;;;;;5054483;28;20485;-76
2021/07/11 02:32:05;;;;;;;16.40;13.50;;;16.70;99.90;;;;;;5057784;28;20560;-76
2021/07/11 02:34:34;;;;;;;15.97;13.77;;;16.70;99.90;;;;;;5058461;28;20825;-76
2021/07/11 02:37:03;;;;;;;16.13;14.50;;;16.70;99.90;;;;;;5057467;28;20469;-76
2021/07/11 02:39:31;;;;;;;15.93;14.37;;;16.80;99.90;;;;;;5057507;28;20449;-77
2021/07/11 02:42:01;;;;;;;15.67;14.07;;;16.70;99.90;;;;;;5057576;28;20472;-76
2021/07/11 02:44:28;;;;;;;15.10;13.50;;;16.60;99.90;;;;;;5057617;28;20923;-76
2021/07/11 02:47:00;;;;;;;16.33;14.73;;;16.60;99.90;;;;;;5056787;28;20536;-76
2021/07/11 02:49:29;;;;;;;15.20;13.77;;;16.70;99.90;;;;;;5056895;28;20850;-76
2021/07/11 02:51:59;;;;;;;16.03;14.17;;;16.70;99.90;;;;;;5056683;28;20564;-78
2021/07/11 02:54:29;;;;;;;16.73;14.70;;;16.80;99.90;;;;;;5056836;28;20477;-78
2021/07/11 02:57:00;;;;;;;14.93;13.53;;;16.80;99.90;;;;;;5056867;28;20500;-78
2021/07/11 02:59:27;;;;;;;15.63;14.13;;;16.70;99.90;;;;;;5057760;28;20823;-78
2021/07/11 03:01:55;;;;;;;14.87;13.57;;;16.70;99.90;;;;;;5056567;28;20498;-77
2021/07/11 03:04:23;;;;;;;15.00;13.40;;;16.70;99.90;;;;;;5056461;28;20485;-78
2021/07/11 03:06:49;;;;;;;16.90;15.20;;;16.70;99.90;;;;;;5056749;28;20516;-78
2021/07/11 03:09:17;;;;;;;18.20;14.30;;;16.70;99.90;;;;;;5056892;28;20472;-78
2021/07/11 03:11:45;;;;;;;16.37;13.93;;;16.80;99.90;;;;;;5056775;28;20519;-77
2021/07/11 03:14:12;;;;;;;14.50;13.00;;;16.80;99.90;;;;;;5057153;28;20452;-77
2021/07/11 03:16:43;;;;;;;15.37;13.77;;;16.80;99.90;;;;;;5056271;28;20523;-76
2021/07/11 03:19:11;;;;;;;15.17;13.63;;;16.80;99.90;;;;;;5056436;28;20516;-76
2021/07/11 03:21:39;;;;;;;15.30;13.70;;;16.80;99.90;;;;;;5056333;28;20468;-76
2021/07/11 03:24:06;;;;;;;15.00;13.47;;;16.80;99.90;;;;;;5056192;28;20908;-77
2021/07/11 03:26:35;;;;;;;15.10;13.50;;;16.80;99.90;;;;;;5056200;28;20878;-77
2021/07/11 03:29:08;;;;;;;14.97;13.50;;;16.80;99.90;;;;;;5056385;28;20483;-77
2021/07/11 03:31:35;;;;;;;15.27;13.80;;;16.80;99.90;;;;;;5056320;28;20469;-77
2021/07/11 03:34:02;;;;;;;15.70;14.20;;;17.10;99.90;;;;;;5056281;28;20484;-76
2021/07/11 03:36:32;;;;;;;14.80;12.60;;;16.60;99.90;;;;;;5056367;28;20460;-76
2021/07/11 03:39:01;;;;;;;14.73;13.23;;;16.80;99.90;;;;;;5056385;28;20540;-76
2021/07/11 03:41:32;;;;;;;14.57;13.07;;;16.80;99.90;;;;;;5055807;28;20853;-78
2021/07/11 03:44:01;;;;;;;15.17;13.67;;;16.70;99.90;;;;;;5055991;28;20491;-77
2021/07/11 03:46:30;;;;;;;14.90;13.50;;;16.70;99.90;;;;;;5055670;28;20959;-78
2021/07/11 03:49:00;;;;;;;15.27;13.83;;;16.80;99.90;;;;;;5079718;22;20555;-77
2021/07/11 03:51:31;;;;;;;15.20;13.80;;;16.80;99.90;;;;;;5056666;28;21087;-77
2021/07/11 03:54:00;;;;;;;15.37;13.43;;;16.80;99.90;;;;;;5057001;28;20458;-77
2021/07/11 03:56:28;;;;;;;18.77;14.00;;;16.80;99.90;;;;;;5057384;28;20481;-77
2021/07/11 03:58:57;;;;;;;15.07;13.27;;;16.80;99.90;;;;;;5056655;28;20527;-76
2021/07/11 04:01:27;;;;;;;15.10;13.60;;;16.80;99.90;;;;;;5058514;28;20437;-76
2021/07/11 04:03:55;;;;;;;14.07;12.67;;;16.80;99.90;;;;;;5057937;28;20512;-77
2021/07/11 04:06:23;;;;;;;14.57;13.07;;;16.80;99.90;;;;;;5055990;28;20507;-77
2021/07/11 04:08:53;;;;;;;14.80;13.20;;;16.90;99.90;;;;;;5055652;28;20476;-77
2021/07/11 04:11:20;;;;;;;13.93;12.67;;;16.90;99.90;;;;;;5055468;28;20553;-77
2021/07/11 04:13:47;;;;;;;14.60;13.17;;;17.00;99.90;;;;;;5056196;28;20438;-77
2021/07/11 04:16:14;;;;;;;14.00;12.60;;;17.00;99.90;;;;;;5055789;28;20932;-77
2021/07/11 04:18:45;;;;;;;15.90;14.33;;;17.00;99.90;;;;;;5055833;28;20492;-77
2021/07/11 04:21:14;;;;;;;15.47;13.83;;;17.10;99.90;;;;;;5055724;28;20422;-77
2021/07/11 04:23:42;;;;;;;14.00;12.57;;;17.00;99.90;;;;;;5055941;28;20477;-77
2021/07/11 04:26:10;;;;;;;14.60;13.10;;;17.00;99.90;;;;;;5056136;28;20476;-76
2021/07/11 04:28:40;;;;;;;15.20;12.60;;;17.10;99.90;;;;;;5055927;28;20496;-77
2021/07/11 04:31:07;;;;;;;14.97;13.40;;;17.10;99.90;;;;;;5056285;28;20470;-77
2021/07/11 04:33:34;;;;;;;14.87;13.40;;;17.20;99.90;;;;;;5055654;28;20469;-77
2021/07/11 04:36:05;;;;;;;14.10;12.80;;;17.20;99.90;;;;;;5055199;28;21026;-77
2021/07/11 04:38:32;;;;;;;15.73;13.00;;;17.30;99.90;;;;;;5055472;28;20523;-77
2021/07/11 04:41:00;;;;;;;14.07;12.87;;;17.30;99.90;;;;;;5055147;28;20466;-77
2021/07/11 04:43:26;;;;;;;13.33;11.97;;;17.30;99.90;;;;;;5055426;28;20452;-76
2021/07/11 04:45:53;;;;;;;15.40;13.77;;;17.30;99.90;;;;;;5056585;28;20485;-77
2021/07/11 04:48:19;;;;;;;14.90;13.40;;;17.40;99.90;;;;;;5055877;28;20477;-76
2021/07/11 04:50:48;;;;;;;15.30;13.27;;;17.40;99.90;;;;;;5055141;28;20882;-77
2021/07/11 04:53:17;;;;;;;14.07;12.57;;;17.50;99.90;;;;;;5054254;28;20452;-77
2021/07/11 04:55:45;;;;;;;13.90;12.50;;;17.50;99.90;;;;;;5055274;28;20450;-77
2021/07/11 04:58:12;;;;;;;14.83;13.43;;;17.60;99.90;;;;;;5054856;28;20505;-77
2021/07/11 05:00:39;;;;;;;13.87;12.67;;;17.60;99.90;;;;;;5054778;28;20484;-77
2021/07/11 05:03:06;;;;;;;13.40;11.77;;;17.70;99.90;;;;;;5054579;28;20469;-78
2021/07/11 05:05:34;;;;;;;18.10;14.40;;;17.70;99.90;;;;;;5054606;28;20959;-77
2021/07/11 05:08:01;;;;;;;16.33;14.73;;;17.70;99.90;;;;;;5054658;28;20564;-77
2021/07/11 05:10:29;;;;;;;14.07;12.23;;;17.80;99.90;;;;;;5055222;28;20499;-77
2021/07/11 05:12:56;;;;;;;13.10;11.77;;;17.80;99.90;;;;;;5056521;28;20524;-77
2021/07/11 05:15:23;;;;;;;15.23;13.50;;;17.90;99.90;;;;;;5054823;28;20881;-77
2021/07/11 05:17:50;;;;;;;14.37;12.97;;;17.90;99.90;;;;;;5054677;28;20508;-77
2021/07/11 05:20:16;;;;;;;14.93;12.20;;;17.90;99.90;;;;;;5054668;28;20484;-77
2021/07/11 05:22:43;;;;;;;12.63;11.10;;;18.00;99.90;;;;;;5054497;28;20478;-77
2021/07/11 05:25:10;;;;;;;14.33;12.80;;;18.00;99.90;;;;;;5054396;28;20907;-77
2021/07/11 05:27:38;;;;;;;14.10;12.77;;;18.10;99.90;;;;;;5054242;28;20490;-77
2021/07/11 05:30:06;;;;;;;13.83;12.50;;;18.10;99.90;;;;;;5055003;28;20447;-77
2021/07/11 05:32:33;;;;;;;14.30;12.90;;;18.20;99.90;;;;;;5055991;28;20504;-77
2021/07/11 05:35:00;;;;;;;15.13;13.63;;;18.20;99.90;;;;;;5056641;28;20442;-76
2021/07/11 05:37:26;;;;;;;13.63;12.33;;;18.30;99.90;;;;;;5055813;28;21005;-76
2021/07/11 05:39:53;;;;;;;13.57;12.37;;;18.30;99.90;;;;;;5057100;28;20974;-77
2021/07/11 05:42:20;;;;;;;16.50;14.73;;;18.30;99.90;;;;;;5057182;28;20450;-77
2021/07/11 05:44:47;;;;;;;13.63;12.23;;;18.30;99.90;;;;;;5056871;28;20452;-77
2021/07/11 05:47:14;;;;;;;12.50;11.30;;;18.40;99.90;;;;;;5057398;28;20477;-77
2021/07/11 05:49:40;;;;;;;12.37;11.30;;;18.50;99.90;;;;;;5056868;28;20945;-77
2021/07/11 05:52:08;;;;;;;12.33;11.23;;;18.60;99.90;;;;;;5057301;28;20477;-77
2021/07/11 05:54:35;;;;;;;12.10;11.00;;;18.70;99.90;;;;;;5064122;28;20448;-77
2021/07/11 05:57:01;;;;;;;12.07;11.03;;;18.60;99.90;;;;;;5064263;28;20443;-77
2021/07/11 05:59:28;;;;;;;13.27;12.07;;;18.90;99.90;;;;;;5056587;28;20490;-77
2021/07/11 06:01:56;;;;;;;12.57;11.57;;;19.00;99.90;;;;;;5057024;28;20501;-77
2021/07/11 06:04:23;;;;;;;12.80;11.50;;;19.10;99.90;;;;;;5055658;28;20482;-77
2021/07/11 06:06:49;;;;;;;12.50;11.40;;;19.50;99.90;;;;;;5053421;28;20481;-76
2021/07/11 06:09:16;;;;;;;11.03;10.00;;;19.30;99.90;;;;;;5057370;28;20859;-79
2021/07/11 06:11:42;;;;;;;11.43;10.47;;;19.40;99.90;;;;;;5055021;28;20918;-78
2021/07/11 06:14:09;;;;;;;10.80;9.80;;;19.50;99.90;;;;;;5056082;28;20480;-76
2021/07/11 06:16:36;;;;;;;12.57;11.33;;;19.60;99.90;;;;;;5058116;28;20482;-75
2021/07/11 06:19:04;;;;;;;13.00;11.70;;;19.60;99.90;;;;;;5055472;28;20536;-77
2021/07/11 06:21:31;;;;;;;12.70;11.50;;;19.70;99.90;;;;;;5054432;28;20471;-77
2021/07/11 06:23:57;;;;;;;8.40;7.60;;;19.90;99.90;;;;;;5054055;28;20532;-77
2021/07/11 06:26:24;;;;;;;10.90;9.93;;;19.90;99.90;;;;;;5054203;28;20887;-77
2021/07/11 06:28:50;;;;;;;10.50;9.60;;;20.00;99.90;;;;;;5054020;28;20496;-77
2021/07/11 06:31:17;;;;;;;10.53;9.60;;;20.20;99.90;;;;;;5053512;28;20507;-77
2021/07/11 06:33:43;;;;;;;10.60;9.60;;;20.20;99.90;;;;;;5053071;28;20536;-77
2021/07/11 06:36:11;;;;;;;11.53;10.50;;;20.30;99.90;;;;;;5053805;28;20453;-77
2021/07/11 06:38:38;;;;;;;12.13;11.00;;;20.40;99.90;;;;;;5055659;28;20470;-77
2021/07/11 06:41:05;;;;;;;8.63;7.83;;;20.50;99.90;;;;;;5056044;28;20449;-77
2021/07/11 06:43:31;;;;;;;8.67;7.90;;;20.60;99.90;;;;;;5054647;28;20474;-77
2021/07/11 06:45:58;;;;;;;8.70;7.90;;;20.60;99.90;;;;;;5055584;28;20457;-77
2021/07/11 06:48:25;;;;;;;11.47;10.30;;;20.70;99.90;;;;;;5053486;28;20576;-77
2021/07/11 06:50:51;;;;;;;8.13;7.30;;;20.70;99.90;;;;;;5054440;28;20860;-77
2021/07/11 06:53:19;;;;;;;7.50;6.90;;;20.80;99.90;;;;;;5053084;28;20513;-78
2021/07/11 06:55:46;;;;;;;8.40;7.60;;;20.80;99.90;;;;;;5053591;28;20474;-78
2021/07/11 06:58:12;;;;;;;13.03;11.80;;;20.90;99.90;;;;;;5053227;28;20500;-77
2021/07/11 07:00:39;;;;;;;8.07;7.40;;;21.00;99.90;;;;;;5053459;28;20479;-77
2021/07/11 07:03:05;;;;;;;7.00;6.50;;;21.00;99.90;;;;;;5052795;28;20480;-77
2021/07/11 07:05:32;;;;;;;5.90;5.50;;;21.10;99.90;;;;;;5053142;28;20473;-77
2021/07/11 07:07:58;;;;;;;6.70;6.20;;;21.10;99.90;;;;;;5052898;28;20501;-77
2021/07/11 07:10:26;;;;;;;7.20;6.60;;;21.20;99.90;;;;;;5052918;28;20477;-77
2021/07/11 07:12:53;;;;;;;13.37;12.10;;;21.20;99.90;;;;;;5052608;28;21022;-77
2021/07/11 07:15:20;;;;;;;5.90;5.37;;;21.20;99.90;;;;;;5053956;28;21033;-77
2021/07/11 07:17:46;;;;;;;6.10;5.57;;;21.30;99.90;;;;;;5057100;28;20503;-77
2021/07/11 07:20:14;;;;;;;5.60;5.20;;;21.40;99.90;;;;;;5059142;28;20450;-77
2021/07/11 07:22:41;;;;;;;5.70;5.23;;;21.40;99.90;;;;;;5058211;28;20556;-77
2021/07/11 07:25:11;;;;;;;6.00;5.50;;;21.50;99.90;;;;;;5056907;28;20481;-77
2021/07/11 07:27:39;;;;;;;4.73;4.17;;;21.60;99.90;;;;;;5056876;28;20508;-77
2021/07/11 07:30:08;;;;;;;5.33;4.93;;;21.60;99.90;;;;;;5056968;28;20456;-77
2021/07/11 07:32:35;;;;;;;5.97;5.47;;;21.70;99.90;;;;;;5057005;28;20508;-77
2021/07/11 07:35:02;;;;;;;7.43;6.80;;;21.80;99.90;;;;;;5057224;28;20476;-77
2021/07/11 07:37:28;;;;;;;6.20;5.40;;;21.90;99.90;;;;;;5057631;28;20473;-77
2021/07/11 07:39:55;;;;;;;6.50;6.00;;;22.00;99.90;;;;;;5056906;28;20445;-77
2021/07/11 07:42:21;;;;;;;6.50;5.90;;;22.10;99.90;;;;;;5056412;28;20481;-77
2021/07/11 07:44:49;;;;;;;5.27;4.87;;;22.10;99.90;;;;;;5056920;28;20450;-78
2021/07/11 07:47:16;;;;;;;12.20;11.10;;;22.20;99.90;;;;;;5056790;28;20477;-77
2021/07/11 07:49:42;;;;;;;7.03;6.33;;;22.20;99.90;;;;;;5057201;28;20457;-78
2021/07/11 07:52:09;;;;;;;6.93;5.80;;;22.20;99.90;;;;;;5056518;28;20520;-77
2021/07/11 07:54:35;;;;;;;6.93;5.43;;;22.30;99.90;;;;;;5056009;28;20532;-77
2021/07/11 07:57:02;;;;;;;11.53;10.43;;;22.10;99.90;;;;;;5055512;28;20987;-77
2021/07/11 07:59:29;;;;;;;6.17;5.67;;;22.30;99.90;;;;;;5056003;28;20492;-77
2021/07/11 08:01:57;;;;;;;10.60;9.60;;;22.40;99.90;;;;;;5056009;28;20495;-77
2021/07/11 08:04:23;;;;;;;8.07;7.37;;;22.40;99.90;;;;;;5056091;28;20495;-77
2021/07/11 08:06:50;;;;;;;8.20;6.70;;;22.50;99.90;;;;;;5056216;28;20454;-77
2021/07/11 08:09:17;;;;;;;6.80;6.10;;;22.50;99.90;;;;;;5056063;28;20477;-77
2021/07/11 08:11:44;;;;;;;8.20;7.40;;;22.50;99.90;;;;;;5056043;28;20450;-77
2021/07/11 08:14:11;;;;;;;9.50;7.30;;;22.60;99.90;;;;;;5060243;28;20454;-77
2021/07/11 08:16:38;;;;;;;7.27;6.57;;;22.60;99.90;;;;;;5061105;28;20449;-77
2021/07/11 08:19:06;;;;;;;9.27;8.43;;;22.70;99.90;;;;;;5062313;28;20833;-76
2021/07/11 08:21:33;;;;;;;7.67;7.07;;;22.80;99.90;;;;;;5061181;28;20446;-77
2021/07/11 08:23:59;;;;;;;10.30;8.73;;;22.80;99.90;;;;;;5068021;28;20445;-77
2021/07/11 08:26:26;;;;;;;8.53;7.73;;;22.80;99.90;;;;;;5068280;28;20457;-77
2021/07/11 08:28:53;;;;;;;7.67;6.97;;;22.90;99.90;;;;;;5068963;28;20469;-77
2021/07/11 08:31:19;;;;;;;7.60;6.97;;;22.90;99.90;;;;;;5066880;28;20446;-77
2021/07/11 08:33:46;;;;;;;6.80;6.20;;;23.00;99.90;;;;;;5063911;28;20485;-77
2021/07/11 08:36:14;;;;;;;6.23;5.70;;;23.20;99.90;;;;;;5061815;28;20442;-78
2021/07/11 08:38:40;;;;;;;9.53;8.60;;;23.30;99.90;;;;;;5058430;28;21205;-78
2021/07/11 08:41:07;;;;;;;7.50;6.90;;;23.40;99.90;;;;;;5058050;28;20474;-78
2021/07/11 08:43:37;;;;;;;6.73;5.97;;;23.40;99.90;;;;;;5056774;28;20473;-78
2021/07/11 08:46:07;;;;;;;7.63;7.00;;;23.40;99.90;;;;;;5056851;28;20470;-79
2021/07/11 08:48:35;;;;;;;6.63;6.00;;;23.40;99.90;;;;;;5056950;28;20498;-78
2021/07/11 08:51:03;;;;;;;7.83;7.10;;;23.50;99.90;;;;;;5056292;28;20534;-78
2021/07/11 08:53:33;;;;;;;7.40;5.73;;;23.60;99.90;;;;;;5055678;28;21024;-78
2021/07/11 08:56:01;;;;;;;8.50;7.67;;;23.60;99.90;;;;;;5056052;28;20442;-78
2021/07/11 08:58:27;;;;;;;4.87;4.47;;;23.70;99.90;;;;;;5055824;28;20477;-78
2021/07/11 09:00:54;;;;;;;6.13;5.63;;;23.80;99.90;;;;;;5056052;28;20449;-78
2021/07/11 09:03:21;;;;;;;6.10;5.33;;;23.90;99.90;;;;;;5055674;28;20929;-78
2021/07/11 09:05:54;;;;;;;7.23;6.53;;;23.90;99.90;;;;;;5055365;28;20978;-78
2021/07/11 09:08:23;;;;;;;6.60;5.93;;;23.90;99.90;;;;;;5055534;28;20683;-78
2021/07/11 09:10:53;;;;;;;7.47;6.87;;;23.90;99.90;;;;;;5055778;28;20457;-78
2021/07/11 09:13:22;;;;;;;8.13;5.50;;;24.00;99.90;;;;;;5056268;28;20504;-78
2021/07/11 09:15:50;;;;;;;5.30;4.90;;;24.00;99.90;;;;;;5056231;28;20447;-78
2021/07/11 09:18:23;;;;;;;5.63;5.23;;;24.10;99.90;;;;;;5055913;28;20505;-78
2021/07/11 09:20:57;;;;;;;6.63;6.00;;;24.10;99.90;;;;;;5056081;28;20787;-78
2021/07/11 09:23:25;;;;;;;9.70;8.60;;;24.10;99.90;;;;;;5055880;28;20837;-78
2021/07/11 09:26:03;;;;;;;5.13;4.73;;;24.20;99.90;;;;;;5056088;28;20493;-78
2021/07/11 09:28:30;;;;;;;7.40;6.70;;;24.20;99.90;;;;;;5058082;28;21031;-78
2021/07/11 09:31:05;;;;;;;7.87;5.67;;;24.30;99.90;;;;;;5056900;28;20452;-78
2021/07/11 09:33:31;;;;;;;11.00;7.90;;;24.40;99.90;;;;;;5058578;28;20532;-78
2021/07/11 09:36:16;;;;;;;6.23;5.73;;;24.40;99.90;;;;;;5058473;28;20479;-78
2021/07/11 09:38:47;;;;;;;5.37;4.77;;;24.50;99.90;;;;;;5056270;28;20499;-78
2021/07/11 09:41:22;;;;;;;5.80;5.20;;;24.60;99.90;;;;;;5056487;28;20439;-78
2021/07/11 09:43:49;;;;;;;6.70;6.10;;;24.70;99.90;;;;;;5056730;28;20430;-78
2021/07/11 09:46:17;;;;;;;7.23;6.53;;;24.70;99.90;;;;;;5055341;28;21029;-78
2021/07/11 09:48:51;;;;;;;7.60;6.57;;;24.70;99.90;;;;;;5089948;22;20496;-79
2021/07/11 09:51:20;;;;;;;7.50;6.80;;;24.60;99.90;;;;;;5074138;28;20429;-78
2021/07/11 09:53:49;;;;;;;8.17;7.33;;;25.00;99.90;;;;;;5074055;28;20533;-79
2021/07/11 09:56:37;;;;;;;6.90;6.30;;;24.80;99.90;;;;;;5073760;28;20452;-78
2021/07/11 09:59:06;;;;;;;8.33;7.57;;;24.90;99.90;;;;;;5073645;28;20555;-77
2021/07/11 10:01:34;;;;;;;6.60;6.00;;;24.90;99.90;;;;;;5073647;28;20889;-78
2021/07/11 10:04:01;;;;;;;6.97;6.27;;;24.80;99.90;;;;;;5073849;28;20450;-77
2021/07/11 10:06:29;;;;;;;8.07;7.23;;;24.80;99.90;;;;;;5073875;28;20451;-79
2021/07/11 10:08:56;;;;;;;11.87;10.60;;;25.20;99.90;;;;;;5073570;28;20499;-77
2021/07/11 10:11:23;;;;;;;10.57;9.63;;;24.80;99.90;;;;;;5073866;28;20473;-78
2021/07/11 10:13:51;;;;;;;9.77;8.87;;;24.70;99.90;;;;;;5073987;28;20509;-78
2021/07/11 10:16:19;;;;;;;6.37;4.30;;;24.70;99.90;;;;;;5074678;28;20476;-78
2021/07/11 10:18:49;;;;;;;4.90;4.40;;;24.70;99.90;;;;;;5074610;28;20507;-78
2021/07/11 10:21:20;;;;;;;8.93;8.03;;;24.70;99.90;;;;;;5074466;28;20455;-79
2021/07/11 10:23:47;;;;;;;7.67;6.87;;;24.80;99.90;;;;;;5074018;28;20427;-78
2021/07/11 10:26:16;;;;;;;6.40;5.80;;;24.80;99.90;;;;;;5074097;28;20483;-79
2021/07/11 10:28:46;;;;;;;6.37;5.87;;;24.80;99.90;;;;;;5074268;28;20468;-78
2021/07/11 10:31:22;;;;;;;5.37;4.87;;;24.90;99.90;;;;;;5077321;28;20449;-77
2021/07/11 10:33:50;;;;;;;7.27;6.57;;;24.90;99.90;;;;;;5075128;28;20464;-78
2021/07/11 10:36:18;;;;;;;6.10;5.60;;;25.00;99.90;;;;;;5075018;28;20452;-77
2021/07/11 10:38:52;;;;;;;7.63;5.00;;;25.10;99.90;;;;;;5077459;28;20471;-77
2021/07/11 10:41:21;;;;;;;4.60;4.20;;;25.20;99.90;;;;;;5076587;28;20436;-77
2021/07/11 10:44:01;;;;;;;7.07;6.37;;;25.20;99.90;;;;;;5074050;28;20437;-77
2021/07/11 10:46:33;;;;;;;4.80;4.50;;;25.30;99.90;;;;;;5074414;28;20522;-77
2021/07/11 10:49:10;;;;;;;4.40;4.00;;;25.30;99.90;;;;;;5074280;28;20511;-77
2021/07/11 10:51:44;;;;;;;5.20;4.80;;;25.30;99.90;;;;;;5077049;28;20451;-77
2021/07/11 10:54:22;;;;;;;5.70;5.20;;;25.40;99.90;;;;;;5077238;28;20538;-77
2021/07/11 10:56:49;;;;;;;6.20;5.70;;;25.40;99.90;;;;;;5077336;28;20937;-77
2021/07/11 10:59:26;;;;;;;5.97;5.47;;;25.40;99.90;;;;;;5077091;28;20499;-77
2021/07/11 11:01:54;;;;;;;4.50;4.20;;;25.50;99.90;;;;;;5077906;28;20781;-77
2021/07/11 11:04:21;;;;;;;6.37;5.87;;;25.50;99.90;;;;;;5077007;28;20480;-78
2021/07/11 11:06:48;;;;;;;12.77;11.17;;;25.50;99.90;;;;;;5077681;28;20931;-79
2021/07/11 11:09:36;;;;;;;7.87;7.10;;;25.50;99.90;;;;;;5076411;28;20468;-77
2021/07/11 11:12:04;;;;;;;5.23;4.83;;;25.40;99.90;;;;;;5076694;28;20468;-77
2021/07/11 11:14:32;;;;;;;5.80;4.50;;;25.50;99.90;;;;;;5076895;28;20910;-77
2021/07/11 11:17:00;;;;;;;19.17;16.90;;;25.70;99.90;;;;;;5076927;28;20449;-78
2021/07/11 11:19:26;;;;;;;5.57;5.17;;;25.60;99.90;;;;;;5076688;28;20511;-77
2021/07/11 11:21:55;;;;;;;5.57;5.07;;;25.70;99.90;;;;;;5076816;28;20476;-78
2021/07/11 11:24:21;;;;;;;6.60;6.10;;;25.60;99.90;;;;;;5076620;28;20538;-78
2021/07/11 11:26:48;;;;;;;6.53;5.67;;;25.80;99.90;;;;;;5076748;28;20550;-78
2021/07/11 11:29:14;;;;;;;6.10;5.50;;;25.80;99.90;;;;;;5076550;28;20508;-78
2021/07/11 11:31:41;;;;;;;6.07;5.53;;;25.80;99.90;;;;;;5075952;28;21134;-77
2021/07/11 11:34:10;;;;;;;4.60;4.30;;;25.80;99.90;;;;;;5076443;28;20476;-78
2021/07/11 11:36:38;;;;;;;8.30;4.90;;;25.70;99.90;;;;;;5076440;28;20992;-77
2021/07/11 11:39:08;;;;;;;5.43;4.20;;;25.70;99.90;;;;;;5076703;28;20464;-77
2021/07/11 11:41:35;;;;;;;4.60;4.20;;;25.80;99.90;;;;;;5077704;28;20494;-77
2021/07/11 11:44:11;;;;;;;5.40;4.10;;;25.80;99.90;;;;;;5076559;28;20441;-77
2021/07/11 11:46:40;;;;;;;5.67;5.17;;;25.80;99.90;;;;;;5076633;28;20490;-78
2021/07/11 11:49:09;;;;;;;4.17;3.83;;;25.80;99.90;;;;;;5076670;28;20483;-78
2021/07/11 11:51:43;;;;;;;5.80;5.30;;;25.90;99.90;;;;;;5076484;28;20874;-78
2021/07/11 11:54:09;;;;;;;5.47;4.97;;;25.90;99.90;;;;;;5076175;28;20500;-78
2021/07/11 11:56:36;;;;;;;4.70;4.30;;;25.90;99.90;;;;;;5076454;28;20457;-77
2021/07/11 11:59:05;;;;;;;4.50;4.10;;;26.00;99.90;;;;;;5075993;28;20982;-77
2021/07/11 12:01:33;;;;;;;4.67;4.30;;;26.10;99.90;;;;;;5075859;28;20445;-78
2021/07/11 12:04:13;;;;;;;4.10;3.80;;;26.10;99.90;;;;;;5076166;28;20527;-79
2021/07/11 12:06:41;;;;;;;4.80;4.47;;;26.10;99.90;;;;;;5076165;28;20973;-77
2021/07/11 12:09:10;;;;;;;4.60;4.27;;;26.20;99.90;;;;;;5076441;28;20503;-77
2021/07/11 12:11:36;;;;;;;4.30;3.90;;;26.20;99.90;;;;;;5076144;28;20440;-77
2021/07/11 12:14:08;;;;;;;4.90;4.50;;;26.00;99.90;;;;;;5076718;28;20537;-77
2021/07/11 12:16:35;;;;;;;4.87;4.47;;;25.90;99.90;;;;;;5076786;28;20524;-78
2021/07/11 12:19:06;;;;;;;10.40;9.00;;;26.40;99.90;;;;;;5076321;28;20510;-77
2021/07/11 12:21:38;;;;;;;34.20;24.90;;;26.40;99.90;;;;;;5076063;28;20461;-79
2021/07/11 12:24:09;;;;;;;10.00;9.00;;;26.40;99.90;;;;;;5076815;28;20437;-79
2021/07/11 12:26:38;;;;;;;4.63;4.23;;;26.40;99.90;;;;;;5076154;28;20429;-78
2021/07/11 12:29:05;;;;;;;3.17;2.97;;;26.70;99.90;;;;;;5077094;28;20479;-78
2021/07/11 12:31:33;;;;;;;4.70;4.30;;;26.50;99.90;;;;;;5077400;28;20452;-77
2021/07/11 12:34:02;;;;;;;5.53;3.40;;;26.50;99.90;;;;;;5075607;28;20520;-78
2021/07/11 12:36:30;;;;;;;4.73;4.40;;;26.30;99.90;;;;;;5075065;28;20511;-79
2021/07/11 12:38:59;;;;;;;4.93;4.50;;;26.30;99.90;;;;;;5074977;28;20507;-77
2021/07/11 12:41:32;;;;;;;4.47;4.17;;;26.40;99.90;;;;;;5074718;28;20944;-78